sensor_id;sensor_type;location;lat;lon;timestamp;pressure;altitude;pressure_sealevel;temperature;humidity
63306;BME280;50735;52.060;1.248;2022-10-31T00:00:44;101510.68;;;12.22;61.66
63306;BME280;50735;52.060;1.248;2022-10-31T00:03:12;101507.53;;;12.16;61.81
63306;BME280;50735;52.060;1.248;2022-10-31T00:05:40;101507.39;;;12.22;61.80
63306;BME280;50735;52.060;1.248;2022-10-31T00:08:07;101511.92;;;12.17;61.92
63306;BME280;50735;52.060;1.248;2022-10-31T00:10:37;101514.45;;;11.94;62.08
63306;BME280;50735;52.060;1.248;2022-10-31T00:13:04;101520.02;;;12.22;61.98
63306;BME280;50735;52.060;1.248;2022-10-31T00:15:32;101519.01;;;12.19;61.71
63306;BME280;50735;52.060;1.248;2022-10-31T00:17:59;101519.75;;;12.30;61.52
63306;BME280;50735;52.060;1.248;2022-10-31T00:20:26;101522.22;;;12.49;61.69
63306;BME280;50735;52.060;1.248;2022-10-31T00:22:53;101524.06;;;12.43;61.91
63306;BME280;50735;52.060;1.248;2022-10-31T00:25:20;101524.52;;;12.31;62.40
63306;BME280;50735;52.060;1.248;2022-10-31T00:27:46;101523.34;;;12.31;62.78
63306;BME280;50735;52.060;1.248;2022-10-31T00:30:13;101520.59;;;12.09;62.93
63306;BME280;50735;52.060;1.248;2022-10-31T00:32:39;101516.81;;;12.14;63.23
63306;BME280;50735;52.060;1.248;2022-10-31T00:35:06;101524.04;;;12.20;63.57
63306;BME280;50735;52.060;1.248;2022-10-31T00:37:33;101526.23;;;12.13;63.73
63306;BME280;50735;52.060;1.248;2022-10-31T00:40:00;101529.43;;;12.23;64.21
63306;BME280;50735;52.060;1.248;2022-10-31T00:42:27;101527.31;;;12.15;63.64
63306;BME280;50735;52.060;1.248;2022-10-31T00:44:54;101527.83;;;12.27;64.38
63306;BME280;50735;52.060;1.248;2022-10-31T00:47:20;101528.48;;;11.88;65.28
63306;BME280;50735;52.060;1.248;2022-10-31T00:49:47;101527.95;;;11.80;64.60
63306;BME280;50735;52.060;1.248;2022-10-31T00:52:14;101528.01;;;12.18;64.69
63306;BME280;50735;52.060;1.248;2022-10-31T00:54:40;101528.42;;;11.97;65.37
63306;BME280;50735;52.060;1.248;2022-10-31T00:57:07;101529.90;;;12.01;65.03
63306;BME280;50735;52.060;1.248;2022-10-31T00:59:33;101525.98;;;11.80;65.90
63306;BME280;50735;52.060;1.248;2022-10-31T01:02:00;101525.35;;;11.98;65.40
63306;BME280;50735;52.060;1.248;2022-10-31T01:04:26;101525.03;;;11.97;65.54
63306;BME280;50735;52.060;1.248;2022-10-31T01:06:53;101523.05;;;11.85;65.50
63306;BME280;50735;52.060;1.248;2022-10-31T01:09:20;101524.87;;;12.05;65.49
63306;BME280;50735;52.060;1.248;2022-10-31T01:11:47;101523.61;;;12.07;65.29
63306;BME280;50735;52.060;1.248;2022-10-31T01:14:14;101527.43;;;12.20;65.43
63306;BME280;50735;52.060;1.248;2022-10-31T01:16:41;101527.72;;;12.07;66.04
63306;BME280;50735;52.060;1.248;2022-10-31T01:19:08;101535.02;;;12.20;65.29
63306;BME280;50735;52.060;1.248;2022-10-31T01:21:35;101529.37;;;12.28;64.98
63306;BME280;50735;52.060;1.248;2022-10-31T01:24:03;101525.92;;;12.40;64.64
63306;BME280;50735;52.060;1.248;2022-10-31T01:26:32;101525.02;;;12.04;65.68
63306;BME280;50735;52.060;1.248;2022-10-31T01:29:01;101521.82;;;12.28;65.07
63306;BME280;50735;52.060;1.248;2022-10-31T01:31:30;101518.93;;;12.33;64.94
63306;BME280;50735;52.060;1.248;2022-10-31T01:33:57;101517.61;;;12.10;65.68
63306;BME280;50735;52.060;1.248;2022-10-31T01:36:26;101519.07;;;12.19;66.06
63306;BME280;50735;52.060;1.248;2022-10-31T01:38:56;101517.39;;;12.18;65.54
63306;BME280;50735;52.060;1.248;2022-10-31T01:41:25;101519.30;;;12.15;65.99
63306;BME280;50735;52.060;1.248;2022-10-31T01:43:54;101517.34;;;12.01;66.45
63306;BME280;50735;52.060;1.248;2022-10-31T01:46:24;101508.81;;;12.11;66.48
63306;BME280;50735;52.060;1.248;2022-10-31T01:48:53;101509.82;;;12.22;66.05
63306;BME280;50735;52.060;1.248;2022-10-31T01:51:24;101507.45;;;11.99;66.14
63306;BME280;50735;52.060;1.248;2022-10-31T01:53:55;101503.87;;;12.08;66.74
63306;BME280;50735;52.060;1.248;2022-10-31T01:56:22;101503.15;;;12.18;66.63
63306;BME280;50735;52.060;1.248;2022-10-31T01:58:49;101502.41;;;12.15;66.73
63306;BME280;50735;52.060;1.248;2022-10-31T02:01:16;101500.29;;;12.07;66.74
63306;BME280;50735;52.060;1.248;2022-10-31T02:03:45;101496.69;;;12.11;66.70
63306;BME280;50735;52.060;1.248;2022-10-31T02:06:20;101492.59;;;12.30;66.33
63306;BME280;50735;52.060;1.248;2022-10-31T02:08:48;101498.24;;;12.39;65.97
63306;BME280;50735;52.060;1.248;2022-10-31T02:11:15;101498.72;;;12.18;66.15
63306;BME280;50735;52.060;1.248;2022-10-31T02:13:42;101496.70;;;12.37;66.04
63306;BME280;50735;52.060;1.248;2022-10-31T02:16:09;101496.60;;;12.45;65.93
63306;BME280;50735;52.060;1.248;2022-10-31T02:18:36;101497.12;;;12.22;66.09
63306;BME280;50735;52.060;1.248;2022-10-31T02:21:09;101495.84;;;12.44;65.98
63306;BME280;50735;52.060;1.248;2022-10-31T02:24:27;101493.93;;;12.45;66.07
63306;BME280;50735;52.060;1.248;2022-10-31T02:27:07;101498.17;;;12.37;66.46
63306;BME280;50735;52.060;1.248;2022-10-31T02:30:04;101502.41;;;11.84;66.68
63306;BME280;50735;52.060;1.248;2022-10-31T02:32:43;101497.57;;;11.96;67.48
63306;BME280;50735;52.060;1.248;2022-10-31T02:35:20;101497.44;;;12.08;66.78
63306;BME280;50735;52.060;1.248;2022-10-31T02:37:57;101495.54;;;12.35;66.91
63306;BME280;50735;52.060;1.248;2022-10-31T02:40:33;101494.73;;;11.96;66.78
63306;BME280;50735;52.060;1.248;2022-10-31T02:43:06;101492.59;;;12.24;67.02
63306;BME280;50735;52.060;1.248;2022-10-31T02:45:40;101490.61;;;12.32;66.98
63306;BME280;50735;52.060;1.248;2022-10-31T02:48:12;101492.33;;;12.36;66.86
63306;BME280;50735;52.060;1.248;2022-10-31T02:50:43;101493.94;;;12.05;67.58
63306;BME280;50735;52.060;1.248;2022-10-31T02:53:14;101495.80;;;12.07;67.15
63306;BME280;50735;52.060;1.248;2022-10-31T02:55:47;101492.60;;;12.32;66.89
63306;BME280;50735;52.060;1.248;2022-10-31T02:58:18;101493.20;;;12.41;66.62
63306;BME280;50735;52.060;1.248;2022-10-31T03:00:54;101488.34;;;11.94;66.99
63306;BME280;50735;52.060;1.248;2022-10-31T03:03:33;101490.53;;;12.58;65.89
63306;BME280;50735;52.060;1.248;2022-10-31T03:06:08;101490.29;;;12.12;66.37
63306;BME280;50735;52.060;1.248;2022-10-31T03:08:39;101490.77;;;12.65;65.88
63306;BME280;50735;52.060;1.248;2022-10-31T03:11:09;101494.12;;;12.60;65.96
63306;BME280;50735;52.060;1.248;2022-10-31T03:13:41;101492.70;;;12.22;66.45
63306;BME280;50735;52.060;1.248;2022-10-31T03:16:13;101491.32;;;12.12;66.08
63306;BME280;50735;52.060;1.248;2022-10-31T03:18:43;101490.96;;;12.41;65.85
63306;BME280;50735;52.060;1.248;2022-10-31T03:21:18;101490.40;;;12.20;65.87
63306;BME280;50735;52.060;1.248;2022-10-31T03:23:48;101486.89;;;12.41;65.88
63306;BME280;50735;52.060;1.248;2022-10-31T03:26:17;101484.00;;;12.69;65.44
63306;BME280;50735;52.060;1.248;2022-10-31T03:28:48;101479.14;;;12.62;65.24
63306;BME280;50735;52.060;1.248;2022-10-31T03:31:18;101474.18;;;12.74;64.76
63306;BME280;50735;52.060;1.248;2022-10-31T03:33:46;101475.45;;;13.07;64.30
63306;BME280;50735;52.060;1.248;2022-10-31T03:36:15;101472.86;;;12.56;64.37
63306;BME280;50735;52.060;1.248;2022-10-31T03:38:45;101473.18;;;13.06;63.94
63306;BME280;50735;52.060;1.248;2022-10-31T03:41:17;101474.33;;;12.85;64.04
63306;BME280;50735;52.060;1.248;2022-10-31T03:43:51;101471.23;;;12.89;63.97
63306;BME280;50735;52.060;1.248;2022-10-31T03:46:20;101475.50;;;13.08;63.94
63306;BME280;50735;52.060;1.248;2022-10-31T03:48:48;101472.67;;;12.74;64.44
63306;BME280;50735;52.060;1.248;2022-10-31T03:51:21;101472.27;;;12.59;64.11
63306;BME280;50735;52.060;1.248;2022-10-31T03:53:53;101473.24;;;12.53;64.21
63306;BME280;50735;52.060;1.248;2022-10-31T03:56:27;101471.22;;;12.98;63.92
63306;BME280;50735;52.060;1.248;2022-10-31T03:59:00;101463.92;;;12.61;63.84
63306;BME280;50735;52.060;1.248;2022-10-31T04:01:30;101466.83;;;12.63;63.76
63306;BME280;50735;52.060;1.248;2022-10-31T04:03:58;101466.53;;;12.73;64.36
63306;BME280;50735;52.060;1.248;2022-10-31T04:06:26;101473.16;;;12.49;64.89
63306;BME280;50735;52.060;1.248;2022-10-31T04:08:57;101475.92;;;12.35;65.28
63306;BME280;50735;52.060;1.248;2022-10-31T04:11:28;101478.82;;;12.45;64.92
63306;BME280;50735;52.060;1.248;2022-10-31T04:13:57;101478.00;;;12.50;64.79
63306;BME280;50735;52.060;1.248;2022-10-31T04:16:27;101472.60;;;12.52;64.58
63306;BME280;50735;52.060;1.248;2022-10-31T04:18:54;101465.57;;;12.81;64.22
63306;BME280;50735;52.060;1.248;2022-10-31T04:21:27;101472.65;;;12.66;65.09
63306;BME280;50735;52.060;1.248;2022-10-31T04:23:54;101473.04;;;12.47;64.95
63306;BME280;50735;52.060;1.248;2022-10-31T04:26:21;101471.76;;;12.20;65.23
63306;BME280;50735;52.060;1.248;2022-10-31T04:28:48;101467.54;;;12.50;64.77
63306;BME280;50735;52.060;1.248;2022-10-31T04:31:15;101469.00;;;12.23;64.96
63306;BME280;50735;52.060;1.248;2022-10-31T04:33:42;101464.65;;;12.67;64.71
63306;BME280;50735;52.060;1.248;2022-10-31T04:36:09;101461.73;;;12.50;64.72
63306;BME280;50735;52.060;1.248;2022-10-31T04:38:36;101463.57;;;12.25;65.65
63306;BME280;50735;52.060;1.248;2022-10-31T04:41:03;101463.56;;;12.27;66.08
63306;BME280;50735;52.060;1.248;2022-10-31T04:43:30;101461.14;;;11.97;66.09
63306;BME280;50735;52.060;1.248;2022-10-31T04:45:56;101460.73;;;12.31;66.11
63306;BME280;50735;52.060;1.248;2022-10-31T04:48:23;101458.91;;;12.24;65.30
63306;BME280;50735;52.060;1.248;2022-10-31T04:50:50;101455.30;;;12.27;65.35
63306;BME280;50735;52.060;1.248;2022-10-31T04:53:16;101443.83;;;12.44;64.81
63306;BME280;50735;52.060;1.248;2022-10-31T04:55:43;101442.35;;;12.46;64.89
63306;BME280;50735;52.060;1.248;2022-10-31T04:58:10;101440.89;;;12.69;64.44
63306;BME280;50735;52.060;1.248;2022-10-31T05:00:37;101440.11;;;12.47;64.63
63306;BME280;50735;52.060;1.248;2022-10-31T05:03:04;101441.18;;;12.46;64.66
63306;BME280;50735;52.060;1.248;2022-10-31T05:05:31;101443.45;;;12.61;64.77
63306;BME280;50735;52.060;1.248;2022-10-31T05:07:58;101446.52;;;12.35;64.77
63306;BME280;50735;52.060;1.248;2022-10-31T05:10:26;101448.46;;;12.55;64.80
63306;BME280;50735;52.060;1.248;2022-10-31T05:12:55;101447.88;;;12.67;64.26
63306;BME280;50735;52.060;1.248;2022-10-31T05:15:25;101448.10;;;12.66;64.37
63306;BME280;50735;52.060;1.248;2022-10-31T05:17:53;101445.55;;;12.55;64.06
63306;BME280;50735;52.060;1.248;2022-10-31T05:20:22;101444.32;;;12.81;63.81
63306;BME280;50735;52.060;1.248;2022-10-31T05:22:51;101443.02;;;12.49;64.31
63306;BME280;50735;52.060;1.248;2022-10-31T05:25:20;101442.12;;;12.72;64.07
63306;BME280;50735;52.060;1.248;2022-10-31T05:27:49;101442.58;;;12.81;63.88
63306;BME280;50735;52.060;1.248;2022-10-31T05:30:19;101436.63;;;12.91;63.63
63306;BME280;50735;52.060;1.248;2022-10-31T05:32:48;101433.58;;;12.94;63.44
63306;BME280;50735;52.060;1.248;2022-10-31T05:35:18;101434.51;;;12.53;63.68
63306;BME280;50735;52.060;1.248;2022-10-31T05:37:45;101438.55;;;12.77;63.56
63306;BME280;50735;52.060;1.248;2022-10-31T05:40:14;101436.89;;;12.81;63.29
63306;BME280;50735;52.060;1.248;2022-10-31T05:42:42;101434.77;;;12.70;63.55
63306;BME280;50735;52.060;1.248;2022-10-31T05:45:11;101432.33;;;12.72;63.45
63306;BME280;50735;52.060;1.248;2022-10-31T05:47:39;101439.42;;;12.90;63.59
63306;BME280;50735;52.060;1.248;2022-10-31T05:50:07;101436.69;;;12.89;63.56
63306;BME280;50735;52.060;1.248;2022-10-31T05:52:35;101430.36;;;12.63;63.75
63306;BME280;50735;52.060;1.248;2022-10-31T05:55:02;101425.40;;;12.49;63.38
63306;BME280;50735;52.060;1.248;2022-10-31T05:57:33;101426.58;;;12.87;63.40
63306;BME280;50735;52.060;1.248;2022-10-31T06:00:00;101424.53;;;12.76;63.15
63306;BME280;50735;52.060;1.248;2022-10-31T06:02:27;101423.95;;;12.90;63.28
63306;BME280;50735;52.060;1.248;2022-10-31T06:04:54;101421.54;;;12.86;63.01
63306;BME280;50735;52.060;1.248;2022-10-31T06:07:20;101421.26;;;12.31;63.79
63306;BME280;50735;52.060;1.248;2022-10-31T06:09:47;101415.11;;;12.68;63.91
63306;BME280;50735;52.060;1.248;2022-10-31T06:12:13;101410.19;;;12.50;63.82
63306;BME280;50735;52.060;1.248;2022-10-31T06:14:40;101405.80;;;12.32;63.85
63306;BME280;50735;52.060;1.248;2022-10-31T06:17:07;101407.65;;;12.67;63.75
63306;BME280;50735;52.060;1.248;2022-10-31T06:19:34;101409.41;;;12.64;63.79
63306;BME280;50735;52.060;1.248;2022-10-31T06:22:01;101412.97;;;12.58;63.81
63306;BME280;50735;52.060;1.248;2022-10-31T06:24:28;101412.44;;;12.15;63.88
63306;BME280;50735;52.060;1.248;2022-10-31T06:26:55;101411.40;;;12.45;64.26
63306;BME280;50735;52.060;1.248;2022-10-31T06:29:22;101410.46;;;12.47;64.09
63306;BME280;50735;52.060;1.248;2022-10-31T06:31:51;101408.91;;;12.49;63.84
63306;BME280;50735;52.060;1.248;2022-10-31T06:34:17;101406.86;;;12.48;65.45
63306;BME280;50735;52.060;1.248;2022-10-31T06:36:45;101402.14;;;12.54;63.60
63306;BME280;50735;52.060;1.248;2022-10-31T06:39:12;101406.02;;;12.19;64.01
63306;BME280;50735;52.060;1.248;2022-10-31T06:41:40;101406.99;;;12.13;64.33
63306;BME280;50735;52.060;1.248;2022-10-31T06:44:07;101411.56;;;12.35;64.01
63306;BME280;50735;52.060;1.248;2022-10-31T06:46:34;101416.08;;;12.37;64.08
63306;BME280;50735;52.060;1.248;2022-10-31T06:49:01;101416.94;;;12.24;63.75
63306;BME280;50735;52.060;1.248;2022-10-31T06:51:27;101416.75;;;12.38;64.01
63306;BME280;50735;52.060;1.248;2022-10-31T06:53:54;101416.06;;;12.26;63.74
63306;BME280;50735;52.060;1.248;2022-10-31T06:56:21;101418.52;;;12.49;63.67
63306;BME280;50735;52.060;1.248;2022-10-31T06:58:47;101417.78;;;12.59;62.98
63306;BME280;50735;52.060;1.248;2022-10-31T07:01:14;101416.81;;;12.61;63.12
63306;BME280;50735;52.060;1.248;2022-10-31T07:03:41;101414.54;;;12.64;62.85
63306;BME280;50735;52.060;1.248;2022-10-31T07:06:07;101411.49;;;12.22;62.75
63306;BME280;50735;52.060;1.248;2022-10-31T07:08:34;101413.34;;;12.58;62.89
63306;BME280;50735;52.060;1.248;2022-10-31T07:11:01;101411.18;;;12.28;63.28
63306;BME280;50735;52.060;1.248;2022-10-31T07:13:28;101412.51;;;12.33;62.97
63306;BME280;50735;52.060;1.248;2022-10-31T07:16:01;101413.82;;;12.59;62.93
63306;BME280;50735;52.060;1.248;2022-10-31T07:18:28;101417.10;;;12.65;62.74
63306;BME280;50735;52.060;1.248;2022-10-31T07:20:56;101416.59;;;12.63;62.53
63306;BME280;50735;52.060;1.248;2022-10-31T07:23:22;101418.50;;;12.48;62.48
63306;BME280;50735;52.060;1.248;2022-10-31T07:25:54;101419.27;;;12.66;62.65
63306;BME280;50735;52.060;1.248;2022-10-31T07:28:22;101418.89;;;12.53;62.31
63306;BME280;50735;52.060;1.248;2022-10-31T07:30:50;101418.50;;;12.73;62.19
63306;BME280;50735;52.060;1.248;2022-10-31T07:33:17;101415.78;;;12.73;62.37
63306;BME280;50735;52.060;1.248;2022-10-31T07:35:44;101415.61;;;12.70;62.81
63306;BME280;50735;52.060;1.248;2022-10-31T07:38:12;101414.95;;;12.27;63.74
63306;BME280;50735;52.060;1.248;2022-10-31T07:40:40;101413.21;;;12.46;63.41
63306;BME280;50735;52.060;1.248;2022-10-31T07:43:08;101411.74;;;12.41;64.00
63306;BME280;50735;52.060;1.248;2022-10-31T07:45:37;101408.04;;;12.34;64.09
63306;BME280;50735;52.060;1.248;2022-10-31T07:48:04;101406.63;;;12.25;64.71
63306;BME280;50735;52.060;1.248;2022-10-31T07:50:32;101403.70;;;11.96;64.43
63306;BME280;50735;52.060;1.248;2022-10-31T07:52:59;101401.54;;;12.12;64.60
63306;BME280;50735;52.060;1.248;2022-10-31T07:55:26;101407.43;;;12.02;64.37
63306;BME280;50735;52.060;1.248;2022-10-31T07:57:58;101408.88;;;12.30;64.61
63306;BME280;50735;52.060;1.248;2022-10-31T08:00:25;101408.56;;;12.36;63.99
63306;BME280;50735;52.060;1.248;2022-10-31T08:02:57;101410.59;;;12.48;64.03
63306;BME280;50735;52.060;1.248;2022-10-31T08:05:24;101406.31;;;12.91;63.55
63306;BME280;50735;52.060;1.248;2022-10-31T08:07:50;101405.02;;;12.96;63.23
63306;BME280;50735;52.060;1.248;2022-10-31T08:10:17;101403.61;;;13.38;62.74
63306;BME280;50735;52.060;1.248;2022-10-31T08:12:44;101401.14;;;13.65;61.71
63306;BME280;50735;52.060;1.248;2022-10-31T08:15:10;101402.76;;;13.86;61.79
63306;BME280;50735;52.060;1.248;2022-10-31T08:17:38;101400.30;;;14.05;61.02
63306;BME280;50735;52.060;1.248;2022-10-31T08:20:06;101398.90;;;14.41;60.57
63306;BME280;50735;52.060;1.248;2022-10-31T08:22:33;101400.40;;;14.27;59.18
63306;BME280;50735;52.060;1.248;2022-10-31T08:25:00;101398.85;;;14.44;59.49
63306;BME280;50735;52.060;1.248;2022-10-31T08:27:27;101398.07;;;14.52;59.31
63306;BME280;50735;52.060;1.248;2022-10-31T08:29:54;101399.27;;;14.80;59.27
63306;BME280;50735;52.060;1.248;2022-10-31T08:32:20;101401.09;;;14.39;58.96
63306;BME280;50735;52.060;1.248;2022-10-31T08:34:47;101400.19;;;14.38;59.33
63306;BME280;50735;52.060;1.248;2022-10-31T08:37:14;101398.59;;;14.52;59.34
63306;BME280;50735;52.060;1.248;2022-10-31T08:39:40;101396.83;;;14.41;59.53
63306;BME280;50735;52.060;1.248;2022-10-31T08:42:07;101389.28;;;14.41;60.11
63306;BME280;50735;52.060;1.248;2022-10-31T08:44:33;101380.09;;;13.90;60.42
63306;BME280;50735;52.060;1.248;2022-10-31T08:47:01;101377.48;;;14.45;60.23
63306;BME280;50735;52.060;1.248;2022-10-31T08:49:27;101372.46;;;14.07;61.47
63306;BME280;50735;52.060;1.248;2022-10-31T08:51:54;101369.63;;;14.15;61.61
63306;BME280;50735;52.060;1.248;2022-10-31T08:54:21;101369.49;;;13.92;61.54
63306;BME280;50735;52.060;1.248;2022-10-31T08:56:48;101366.74;;;14.24;61.39
63306;BME280;50735;52.060;1.248;2022-10-31T08:59:19;101366.50;;;14.39;61.00
63306;BME280;50735;52.060;1.248;2022-10-31T09:01:46;101364.30;;;14.44;60.99
63306;BME280;50735;52.060;1.248;2022-10-31T09:04:12;101367.46;;;14.60;60.68
63306;BME280;50735;52.060;1.248;2022-10-31T09:06:39;101362.38;;;14.51;60.44
63306;BME280;50735;52.060;1.248;2022-10-31T09:09:06;101368.10;;;14.63;60.11
63306;BME280;50735;52.060;1.248;2022-10-31T09:11:33;101367.81;;;15.14;59.18
63306;BME280;50735;52.060;1.248;2022-10-31T09:14:00;101368.26;;;15.04;58.78
63306;BME280;50735;52.060;1.248;2022-10-31T09:16:26;101372.93;;;15.22;57.85
63306;BME280;50735;52.060;1.248;2022-10-31T09:18:53;101369.23;;;15.32;58.37
63306;BME280;50735;52.060;1.248;2022-10-31T09:21:19;101370.82;;;15.10;57.61
63306;BME280;50735;52.060;1.248;2022-10-31T09:23:46;101363.79;;;14.74;58.10
63306;BME280;50735;52.060;1.248;2022-10-31T09:26:12;101359.75;;;14.16;59.79
63306;BME280;50735;52.060;1.248;2022-10-31T09:28:39;101357.66;;;14.16;60.45
63306;BME280;50735;52.060;1.248;2022-10-31T09:31:05;101351.51;;;14.42;60.20
63306;BME280;50735;52.060;1.248;2022-10-31T09:33:32;101351.16;;;14.95;58.58
63306;BME280;50735;52.060;1.248;2022-10-31T09:35:59;101344.49;;;15.30;57.79
63306;BME280;50735;52.060;1.248;2022-10-31T09:38:26;101343.76;;;15.73;56.36
63306;BME280;50735;52.060;1.248;2022-10-31T09:40:56;101346.02;;;16.01;55.60
63306;BME280;50735;52.060;1.248;2022-10-31T09:43:31;101336.50;;;16.29;54.60
63306;BME280;50735;52.060;1.248;2022-10-31T09:46:07;101336.50;;;15.19;55.64
63306;BME280;50735;52.060;1.248;2022-10-31T09:48:43;101334.00;;;15.24;55.58
63306;BME280;50735;52.060;1.248;2022-10-31T09:51:15;101333.29;;;14.96;56.82
63306;BME280;50735;52.060;1.248;2022-10-31T09:53:46;101333.75;;;15.28;56.76
63306;BME280;50735;52.060;1.248;2022-10-31T09:56:16;101333.05;;;15.89;55.45
63306;BME280;50735;52.060;1.248;2022-10-31T09:58:47;101328.02;;;15.66;54.40
63306;BME280;50735;52.060;1.248;2022-10-31T10:01:26;101326.40;;;16.06;54.04
63306;BME280;50735;52.060;1.248;2022-10-31T10:03:58;101324.37;;;16.22;54.03
63306;BME280;50735;52.060;1.248;2022-10-31T10:06:28;101322.40;;;15.44;54.42
63306;BME280;50735;52.060;1.248;2022-10-31T10:08:56;101322.67;;;15.27;54.74
63306;BME280;50735;52.060;1.248;2022-10-31T10:11:34;101320.55;;;16.44;53.57
63306;BME280;50735;52.060;1.248;2022-10-31T10:14:13;101321.51;;;16.09;53.42
63306;BME280;50735;52.060;1.248;2022-10-31T10:16:54;101316.76;;;15.99;53.87
63306;BME280;50735;52.060;1.248;2022-10-31T10:19:34;101307.69;;;16.10;53.64
63306;BME280;50735;52.060;1.248;2022-10-31T10:22:12;101311.17;;;15.67;53.69
63306;BME280;50735;52.060;1.248;2022-10-31T10:24:57;101310.99;;;14.92;55.41
63306;BME280;50735;52.060;1.248;2022-10-31T10:27:34;101300.96;;;15.80;55.58
63306;BME280;50735;52.060;1.248;2022-10-31T10:30:12;101302.22;;;15.60;54.87
63306;BME280;50735;52.060;1.248;2022-10-31T10:32:43;101295.59;;;16.37;53.60
63306;BME280;50735;52.060;1.248;2022-10-31T10:35:18;101299.95;;;16.43;52.73
63306;BME280;50735;52.060;1.248;2022-10-31T10:37:50;101305.02;;;16.80;52.59
63306;BME280;50735;52.060;1.248;2022-10-31T10:40:21;101300.06;;;17.04;51.36
63306;BME280;50735;52.060;1.248;2022-10-31T10:42:57;101299.61;;;17.30;50.19
63306;BME280;50735;52.060;1.248;2022-10-31T10:45:26;101302.94;;;17.22;50.15
63306;BME280;50735;52.060;1.248;2022-10-31T10:48:05;101297.74;;;16.97;50.40
63306;BME280;50735;52.060;1.248;2022-10-31T10:50:35;101297.18;;;17.07;50.48
63306;BME280;50735;52.060;1.248;2022-10-31T10:53:12;101296.69;;;17.50;50.46
63306;BME280;50735;52.060;1.248;2022-10-31T10:55:47;101293.62;;;17.24;49.86
63306;BME280;50735;52.060;1.248;2022-10-31T10:58:17;101286.30;;;17.65;49.30
63306;BME280;50735;52.060;1.248;2022-10-31T11:00:46;101279.23;;;18.07;48.91
63306;BME280;50735;52.060;1.248;2022-10-31T11:03:14;101282.94;;;18.34;47.97
63306;BME280;50735;52.060;1.248;2022-10-31T11:05:46;101274.99;;;18.19;47.37
63306;BME280;50735;52.060;1.248;2022-10-31T11:08:23;101274.94;;;18.18;47.81
63306;BME280;50735;52.060;1.248;2022-10-31T11:10:58;101272.65;;;18.54;47.40
63306;BME280;50735;52.060;1.248;2022-10-31T11:13:25;101267.25;;;19.05;46.26
63306;BME280;50735;52.060;1.248;2022-10-31T11:15:57;101262.35;;;18.49;44.59
63306;BME280;50735;52.060;1.248;2022-10-31T11:18:28;101257.64;;;18.82;44.03
63306;BME280;50735;52.060;1.248;2022-10-31T11:20:58;101254.01;;;18.20;44.09
63306;BME280;50735;52.060;1.248;2022-10-31T11:23:27;101258.02;;;18.49;46.31
63306;BME280;50735;52.060;1.248;2022-10-31T11:25:57;101248.68;;;17.77;45.37
63306;BME280;50735;52.060;1.248;2022-10-31T11:28:25;101239.53;;;18.28;45.10
63306;BME280;50735;52.060;1.248;2022-10-31T11:30:53;101231.74;;;18.03;45.35
63306;BME280;50735;52.060;1.248;2022-10-31T11:33:26;101227.17;;;18.09;45.71
63306;BME280;50735;52.060;1.248;2022-10-31T11:35:55;101223.38;;;18.38;45.29
63306;BME280;50735;52.060;1.248;2022-10-31T11:38:24;101226.73;;;18.57;44.98
63306;BME280;50735;52.060;1.248;2022-10-31T11:40:56;101213.62;;;18.28;45.11
63306;BME280;50735;52.060;1.248;2022-10-31T11:43:24;101207.04;;;18.91;45.05
63306;BME280;50735;52.060;1.248;2022-10-31T11:45:51;101207.05;;;17.67;46.26
63306;BME280;50735;52.060;1.248;2022-10-31T11:48:20;101201.95;;;18.11;45.73
63306;BME280;50735;52.060;1.248;2022-10-31T11:50:49;101191.80;;;18.38;45.31
63306;BME280;50735;52.060;1.248;2022-10-31T11:53:18;101188.25;;;18.13;44.90
63306;BME280;50735;52.060;1.248;2022-10-31T11:55:47;101187.95;;;17.87;45.42
63306;BME280;50735;52.060;1.248;2022-10-31T11:58:26;101182.29;;;18.15;45.13
63306;BME280;50735;52.060;1.248;2022-10-31T12:00:55;101178.22;;;18.06;44.50
63306;BME280;50735;52.060;1.248;2022-10-31T12:04:02;101172.37;;;18.54;44.85
63306;BME280;50735;52.060;1.248;2022-10-31T12:06:34;101175.72;;;18.55;44.84
63306;BME280;50735;52.060;1.248;2022-10-31T12:09:16;101170.15;;;18.51;45.29
63306;BME280;50735;52.060;1.248;2022-10-31T12:11:52;101169.03;;;18.13;45.01
63306;BME280;50735;52.060;1.248;2022-10-31T12:14:30;101174.22;;;18.34;45.09
63306;BME280;50735;52.060;1.248;2022-10-31T12:17:05;101160.79;;;18.76;44.02
63306;BME280;50735;52.060;1.248;2022-10-31T12:19:42;101160.52;;;18.43;43.63
63306;BME280;50735;52.060;1.248;2022-10-31T12:22:17;101158.35;;;18.91;43.40
63306;BME280;50735;52.060;1.248;2022-10-31T12:24:59;101145.73;;;18.94;43.54
63306;BME280;50735;52.060;1.248;2022-10-31T12:27:39;101133.04;;;19.50;43.16
63306;BME280;50735;52.060;1.248;2022-10-31T12:30:17;101122.36;;;18.88;43.11
63306;BME280;50735;52.060;1.248;2022-10-31T12:33:33;101119.86;;;19.26;42.80
63306;BME280;50735;52.060;1.248;2022-10-31T12:36:18;101109.18;;;19.79;42.23
63306;BME280;50735;52.060;1.248;2022-10-31T12:38:59;101109.25;;;19.78;41.18
63306;BME280;50735;52.060;1.248;2022-10-31T12:41:38;101094.84;;;19.62;41.71
63306;BME280;50735;52.060;1.248;2022-10-31T12:44:21;101097.13;;;19.84;41.79
63306;BME280;50735;52.060;1.248;2022-10-31T12:47:06;101088.92;;;19.16;41.20
63306;BME280;50735;52.060;1.248;2022-10-31T12:49:45;101083.41;;;18.89;41.66
63306;BME280;50735;52.060;1.248;2022-10-31T12:52:31;101082.45;;;18.96;41.77
63306;BME280;50735;52.060;1.248;2022-10-31T12:55:10;101083.09;;;18.67;41.82
63306;BME280;50735;52.060;1.248;2022-10-31T12:57:45;101067.51;;;19.29;41.95
63306;BME280;50735;52.060;1.248;2022-10-31T13:00:15;101058.74;;;20.02;41.02
63306;BME280;50735;52.060;1.248;2022-10-31T13:02:47;101055.54;;;19.94;40.82
63306;BME280;50735;52.060;1.248;2022-10-31T13:05:22;101049.52;;;19.96;40.75